sensor_id;sensor_type;location;lat;lon;timestamp;pressure;altitude;pressure_sealevel;temperature;humidity
71907;BME280;59781;52.090;5.030;2023-06-04T00:01:34;102226.47;;;13.51;100.00
71907;BME280;59781;52.090;5.030;2023-06-04T00:04:00;102229.25;;;13.41;100.00
71907;BME280;59781;52.090;5.030;2023-06-04T00:06:25;102223.84;;;13.24;100.00
71907;BME280;59781;52.090;5.030;2023-06-04T00:08:51;102222.00;;;13.42;100.00
71907;BME280;59781;52.090;5.030;2023-06-04T00:11:17;102225.38;;;13.44;100.00
71907;BME280;59781;52.090;5.030;2023-06-04T00:13:43;102226.78;;;13.48;100.00
71907;BME280;59781;52.090;5.030;2023-06-04T00:16:08;102235.16;;;13.19;100.00
71907;BME280;59781;52.090;5.030;2023-06-04T00:18:34;102233.00;;;13.13;100.00
71907;BME280;59781;52.090;5.030;2023-06-04T00:21:00;102225.03;;;13.39;100.00
71907;BME280;59781;52.090;5.030;2023-06-04T00:23:25;102226.25;;;13.27;100.00
71907;BME280;59781;52.090;5.030;2023-06-04T00:25:51;102221.63;;;13.19;100.00
71907;BME280;59781;52.090;5.030;2023-06-04T00:28:17;102225.50;;;13.07;100.00
71907;BME280;59781;52.090;5.030;2023-06-04T00:30:42;102217.50;;;13.33;100.00
71907;BME280;59781;52.090;5.030;2023-06-04T00:33:08;102225.56;;;13.25;100.00
71907;BME280;59781;52.090;5.030;2023-06-04T00:35:34;102232.47;;;13.09;100.00
71907;BME280;59781;52.090;5.030;2023-06-04T00:37:59;102224.97;;;13.03;100.00
71907;BME280;59781;52.090;5.030;2023-06-04T00:40:25;102225.72;;;12.96;100.00
71907;BME280;59781;52.090;5.030;2023-06-04T00:42:51;102229.63;;;13.11;100.00
71907;BME280;59781;52.090;5.030;2023-06-04T00:45:17;102225.38;;;13.44;100.00
71907;BME280;59781;52.090;5.030;2023-06-04T00:47:46;102230.06;;;13.06;100.00
71907;BME280;59781;52.090;5.030;2023-06-04T00:50:13;102226.56;;;12.78;100.00
71907;BME280;59781;52.090;5.030;2023-06-04T00:52:40;102230.22;;;13.05;100.00
71907;BME280;59781;52.090;5.030;2023-06-04T00:55:06;102230.91;;;13.07;100.00
71907;BME280;59781;52.090;5.030;2023-06-04T00:57:33;102219.34;;;13.14;100.00
71907;BME280;59781;52.090;5.030;2023-06-04T00:59:59;102229.97;;;12.80;100.00
71907;BME280;59781;52.090;5.030;2023-06-04T01:02:26;102226.09;;;12.83;100.00
71907;BME280;59781;52.090;5.030;2023-06-04T01:07:39;102226.16;;;12.73;100.00
71907;BME280;59781;52.090;5.030;2023-06-04T01:10:14;102229.97;;;12.53;100.00
71907;BME280;59781;52.090;5.030;2023-06-04T01:12:41;102227.75;;;12.93;100.00
71907;BME280;59781;52.090;5.030;2023-06-04T01:15:09;102229.78;;;12.64;100.00
71907;BME280;59781;52.090;5.030;2023-06-04T01:17:42;102223.88;;;12.51;100.00
71907;BME280;59781;52.090;5.030;2023-06-04T01:23:34;102220.88;;;12.54;100.00
71907;BME280;59781;52.090;5.030;2023-06-04T01:26:09;102227.59;;;12.68;100.00
71907;BME280;59781;52.090;5.030;2023-06-04T01:28:37;102230.00;;;12.98;100.00
71907;BME280;59781;52.090;5.030;2023-06-04T01:31:05;102231.72;;;12.72;100.00
71907;BME280;59781;52.090;5.030;2023-06-04T01:33:34;102232.22;;;12.57;100.00
71907;BME280;59781;52.090;5.030;2023-06-04T01:36:00;102228.94;;;12.63;100.00
71907;BME280;59781;52.090;5.030;2023-06-04T01:38:27;102228.28;;;12.52;100.00
71907;BME280;59781;52.090;5.030;2023-06-04T01:40:53;102221.28;;;12.31;100.00
71907;BME280;59781;52.090;5.030;2023-06-04T01:43:27;102231.69;;;12.17;100.00
71907;BME280;59781;52.090;5.030;2023-06-04T01:45:54;102223.00;;;12.23;100.00
71907;BME280;59781;52.090;5.030;2023-06-04T01:48:19;102223.88;;;12.14;100.00
71907;BME280;59781;52.090;5.030;2023-06-04T01:50:45;102225.25;;;12.27;100.00
71907;BME280;59781;52.090;5.030;2023-06-04T01:53:11;102228.13;;;12.16;100.00
71907;BME280;59781;52.090;5.030;2023-06-04T01:55:37;102225.66;;;12.32;100.00
71907;BME280;59781;52.090;5.030;2023-06-04T01:58:03;102223.97;;;12.31;100.00
71907;BME280;59781;52.090;5.030;2023-06-04T02:00:29;102227.13;;;12.17;100.00
71907;BME280;59781;52.090;5.030;2023-06-04T02:02:55;102220.47;;;12.49;100.00
71907;BME280;59781;52.090;5.030;2023-06-04T02:05:22;102218.25;;;12.34;100.00
71907;BME280;59781;52.090;5.030;2023-06-04T02:07:48;102228.75;;;12.38;100.00
71907;BME280;59781;52.090;5.030;2023-06-04T02:10:15;102224.63;;;12.06;100.00
71907;BME280;59781;52.090;5.030;2023-06-04T02:13:01;102222.88;;;12.15;100.00
71907;BME280;59781;52.090;5.030;2023-06-04T02:15:30;102224.94;;;11.93;100.00
71907;BME280;59781;52.090;5.030;2023-06-04T02:17:59;102232.88;;;12.04;100.00
71907;BME280;59781;52.090;5.030;2023-06-04T02:20:41;102216.63;;;12.14;100.00
71907;BME280;59781;52.090;5.030;2023-06-04T02:23:09;102222.16;;;12.22;100.00
71907;BME280;59781;52.090;5.030;2023-06-04T02:25:34;102219.59;;;12.48;100.00
71907;BME280;59781;52.090;5.030;2023-06-04T02:28:00;102225.31;;;12.08;100.00
71907;BME280;59781;52.090;5.030;2023-06-04T02:30:26;102224.22;;;12.01;100.00
71907;BME280;59781;52.090;5.030;2023-06-04T02:32:51;102221.69;;;11.90;100.00
71907;BME280;59781;52.090;5.030;2023-06-04T02:35:17;102222.94;;;11.95;100.00
71907;BME280;59781;52.090;5.030;2023-06-04T02:37:43;102222.56;;;11.90;100.00
71907;BME280;59781;52.090;5.030;2023-06-04T02:40:10;102223.09;;;11.94;100.00
71907;BME280;59781;52.090;5.030;2023-06-04T02:42:36;102220.69;;;11.91;100.00
71907;BME280;59781;52.090;5.030;2023-06-04T02:45:01;102220.56;;;11.73;100.00
71907;BME280;59781;52.090;5.030;2023-06-04T02:47:28;102228.66;;;11.92;100.00
71907;BME280;59781;52.090;5.030;2023-06-04T02:49:54;102231.91;;;11.76;100.00
71907;BME280;59781;52.090;5.030;2023-06-04T02:52:19;102229.81;;;11.90;100.00
71907;BME280;59781;52.090;5.030;2023-06-04T02:54:48;102223.81;;;11.86;100.00
71907;BME280;59781;52.090;5.030;2023-06-04T02:57:13;102223.22;;;12.02;100.00
71907;BME280;59781;52.090;5.030;2023-06-04T02:59:39;102222.13;;;11.85;100.00
71907;BME280;59781;52.090;5.030;2023-06-04T03:02:05;102220.59;;;11.54;100.00
71907;BME280;59781;52.090;5.030;2023-06-04T03:04:31;102220.25;;;11.95;100.00
71907;BME280;59781;52.090;5.030;2023-06-04T03:07:03;102216.41;;;11.78;100.00
71907;BME280;59781;52.090;5.030;2023-06-04T03:09:32;102216.97;;;12.01;100.00
71907;BME280;59781;52.090;5.030;2023-06-04T03:12:02;102213.53;;;11.99;100.00
71907;BME280;59781;52.090;5.030;2023-06-04T03:14:30;102220.56;;;11.92;100.00
71907;BME280;59781;52.090;5.030;2023-06-04T03:16:59;102218.03;;;11.81;100.00
71907;BME280;59781;52.090;5.030;2023-06-04T03:19:35;102215.56;;;11.88;100.00
71907;BME280;59781;52.090;5.030;2023-06-04T03:22:05;102213.47;;;11.72;100.00
71907;BME280;59781;52.090;5.030;2023-06-04T03:24:39;102216.44;;;11.69;100.00
71907;BME280;59781;52.090;5.030;2023-06-04T03:27:08;102216.19;;;11.82;100.00
71907;BME280;59781;52.090;5.030;2023-06-04T03:29:36;102218.88;;;11.72;100.00
71907;BME280;59781;52.090;5.030;2023-06-04T03:32:05;102222.56;;;11.90;100.00
71907;BME280;59781;52.090;5.030;2023-06-04T03:34:32;102221.41;;;11.73;100.00
71907;BME280;59781;52.090;5.030;2023-06-04T03:36:58;102220.56;;;11.73;100.00
71907;BME280;59781;52.090;5.030;2023-06-04T03:39:25;102216.88;;;11.55;100.00
71907;BME280;59781;52.090;5.030;2023-06-04T03:41:51;102215.72;;;11.76;100.00
71907;BME280;59781;52.090;5.030;2023-06-04T03:44:19;102209.50;;;11.57;100.00
71907;BME280;59781;52.090;5.030;2023-06-04T03:46:45;102222.44;;;11.43;100.00
71907;BME280;59781;52.090;5.030;2023-06-04T03:49:13;102213.16;;;11.75;100.00
71907;BME280;59781;52.090;5.030;2023-06-04T03:51:43;102219.22;;;12.06;100.00
71907;BME280;59781;52.090;5.030;2023-06-04T03:54:09;102220.56;;;11.92;100.00
71907;BME280;59781;52.090;5.030;2023-06-04T03:56:36;102215.31;;;11.71;100.00
71907;BME280;59781;52.090;5.030;2023-06-04T03:59:02;102212.69;;;11.99;100.00
71907;BME280;59781;52.090;5.030;2023-06-04T04:01:27;102213.72;;;11.78;100.00
71907;BME280;59781;52.090;5.030;2023-06-04T04:03:55;102220.34;;;12.13;100.00
71907;BME280;59781;52.090;5.030;2023-06-04T04:06:21;102220.41;;;11.84;100.00
71907;BME280;59781;52.090;5.030;2023-06-04T04:08:47;102224.09;;;11.93;100.00
71907;BME280;59781;52.090;5.030;2023-06-04T04:11:16;102221.41;;;11.83;100.00
71907;BME280;59781;52.090;5.030;2023-06-04T04:13:44;102220.50;;;12.12;100.00
71907;BME280;59781;52.090;5.030;2023-06-04T04:16:11;102213.44;;;11.91;100.00
71907;BME280;59781;52.090;5.030;2023-06-04T04:18:37;102227.03;;;11.99;100.00
71907;BME280;59781;52.090;5.030;2023-06-04T04:21:04;102224.34;;;11.99;100.00
71907;BME280;59781;52.090;5.030;2023-06-04T04:23:30;102227.03;;;11.99;100.00
71907;BME280;59781;52.090;5.030;2023-06-04T04:25:59;102226.34;;;11.78;100.00
71907;BME280;59781;52.090;5.030;2023-06-04T04:28:26;102220.84;;;12.26;100.00
71907;BME280;59781;52.090;5.030;2023-06-04T04:30:57;102219.72;;;11.72;100.00
71907;BME280;59781;52.090;5.030;2023-06-04T04:33:23;102224.50;;;11.78;100.00
71907;BME280;59781;52.090;5.030;2023-06-04T04:35:52;102227.16;;;12.07;100.00
71907;BME280;59781;52.090;5.030;2023-06-04T04:38:20;102219.56;;;12.30;100.00
71907;BME280;59781;52.090;5.030;2023-06-04T04:40:53;102225.41;;;12.26;100.00
71907;BME280;59781;52.090;5.030;2023-06-04T04:43:32;102224.03;;;12.49;100.00
71907;BME280;59781;52.090;5.030;2023-06-04T04:46:06;102226.22;;;12.36;100.00
71907;BME280;59781;52.090;5.030;2023-06-04T04:48:32;102226.28;;;12.54;100.00
71907;BME280;59781;52.090;5.030;2023-06-04T04:50:58;102230.94;;;12.61;100.00
71907;BME280;59781;52.090;5.030;2023-06-04T04:53:26;102222.88;;;12.97;100.00
71907;BME280;59781;52.090;5.030;2023-06-04T04:55:53;102223.31;;;12.75;100.00
71907;BME280;59781;52.090;5.030;2023-06-04T04:58:19;102218.47;;;13.14;100.00
71907;BME280;59781;52.090;5.030;2023-06-04T05:00:46;102223.94;;;13.32;100.00
71907;BME280;59781;52.090;5.030;2023-06-04T05:03:13;102225.13;;;13.02;100.00
71907;BME280;59781;52.090;5.030;2023-06-04T05:05:39;102222.69;;;13.26;100.00
71907;BME280;59781;52.090;5.030;2023-06-04T05:08:05;102219.03;;;13.35;100.00
71907;BME280;59781;52.090;5.030;2023-06-04T05:10:36;102229.09;;;13.43;100.00
71907;BME280;59781;52.090;5.030;2023-06-04T05:13:03;102220.66;;;13.46;100.00
71907;BME280;59781;52.090;5.030;2023-06-04T05:15:37;102225.66;;;13.76;100.00
71907;BME280;59781;52.090;5.030;2023-06-04T05:18:06;102229.69;;;13.98;100.00
71907;BME280;59781;52.090;5.030;2023-06-04T05:20:35;102220.06;;;14.04;100.00
71907;BME280;59781;52.090;5.030;2023-06-04T05:23:03;102225.25;;;13.89;100.00
71907;BME280;59781;52.090;5.030;2023-06-04T05:25:30;102227.97;;;14.49;100.00
71907;BME280;59781;52.090;5.030;2023-06-04T05:27:56;102222.03;;;14.96;100.00
71907;BME280;59781;52.090;5.030;2023-06-04T05:30:22;102218.16;;;15.07;100.00
71907;BME280;59781;52.090;5.030;2023-06-04T05:32:48;102218.34;;;15.70;100.00
71907;BME280;59781;52.090;5.030;2023-06-04T05:35:16;102224.81;;;15.61;100.00
71907;BME280;59781;52.090;5.030;2023-06-04T05:37:43;102219.06;;;16.36;100.00
71907;BME280;59781;52.090;5.030;2023-06-04T05:40:11;102228.63;;;16.71;98.07
71907;BME280;59781;52.090;5.030;2023-06-04T05:42:38;102230.94;;;16.43;99.54
71907;BME280;59781;52.090;5.030;2023-06-04T05:45:05;102229.94;;;16.36;100.00
71907;BME280;59781;52.090;5.030;2023-06-04T05:47:33;102223.97;;;16.41;97.87
71907;BME280;59781;52.090;5.030;2023-06-04T05:49:59;102234.59;;;16.98;94.57
71907;BME280;59781;52.090;5.030;2023-06-04T05:52:25;102234.59;;;16.58;97.69
71907;BME280;59781;52.090;5.030;2023-06-04T05:54:50;102228.50;;;16.56;97.19
71907;BME280;59781;52.090;5.030;2023-06-04T05:57:16;102234.81;;;17.19;94.78
71907;BME280;59781;52.090;5.030;2023-06-04T05:59:42;102227.56;;;16.80;95.62
71907;BME280;59781;52.090;5.030;2023-06-04T06:02:12;102228.41;;;17.35;93.29
71907;BME280;59781;52.090;5.030;2023-06-04T06:04:39;102225.75;;;17.27;93.64
71907;BME280;59781;52.090;5.030;2023-06-04T06:07:05;102226.31;;;17.83;90.74
71907;BME280;59781;52.090;5.030;2023-06-04T06:09:31;102232.69;;;17.29;93.77
71907;BME280;59781;52.090;5.030;2023-06-04T06:11:57;102233.63;;;17.22;94.13
71907;BME280;59781;52.090;5.030;2023-06-04T06:14:23;102220.22;;;17.95;89.24
71907;BME280;59781;52.090;5.030;2023-06-04T06:16:49;102231.72;;;16.60;97.92
71907;BME280;59781;52.090;5.030;2023-06-04T06:19:16;102229.84;;;16.69;99.33
71907;BME280;59781;52.090;5.030;2023-06-04T06:21:42;102234.25;;;16.61;98.23
71907;BME280;59781;52.090;5.030;2023-06-04T06:24:08;102231.53;;;16.70;97.98
71907;BME280;59781;52.090;5.030;2023-06-04T06:26:34;102236.78;;;16.71;98.31
71907;BME280;59781;52.090;5.030;2023-06-04T06:29:01;102233.06;;;17.03;93.96
71907;BME280;59781;52.090;5.030;2023-06-04T06:31:28;102235.31;;;18.21;91.09
71907;BME280;59781;52.090;5.030;2023-06-04T06:33:54;102238.38;;;17.19;93.51
71907;BME280;59781;52.090;5.030;2023-06-04T06:36:19;102236.72;;;17.79;92.92
71907;BME280;59781;52.090;5.030;2023-06-04T06:38:45;102237.53;;;18.02;91.08
71907;BME280;59781;52.090;5.030;2023-06-04T06:41:11;102234.81;;;18.47;88.76
71907;BME280;59781;52.090;5.030;2023-06-04T06:43:37;102248.44;;;18.47;85.11
71907;BME280;59781;52.090;5.030;2023-06-04T06:46:03;102231.25;;;18.17;85.30
71907;BME280;59781;52.090;5.030;2023-06-04T06:48:29;102237.16;;;19.15;82.94
71907;BME280;59781;52.090;5.030;2023-06-04T06:50:55;102230.59;;;18.44;84.56
71907;BME280;59781;52.090;5.030;2023-06-04T06:53:20;102237.47;;;19.06;82.40
71907;BME280;59781;52.090;5.030;2023-06-04T06:55:46;102241.13;;;19.13;80.23
71907;BME280;59781;52.090;5.030;2023-06-04T06:58:12;102234.56;;;19.71;77.88
71907;BME280;59781;52.090;5.030;2023-06-04T07:00:38;102244.38;;;19.44;78.90
71907;BME280;59781;52.090;5.030;2023-06-04T07:03:03;102242.22;;;19.83;75.31
71907;BME280;59781;52.090;5.030;2023-06-04T07:05:30;102245.69;;;19.27;78.88
71907;BME280;59781;52.090;5.030;2023-06-04T07:07:56;102239.63;;;20.02;73.68
71907;BME280;59781;52.090;5.030;2023-06-04T07:10:23;102243.50;;;20.15;72.71
71907;BME280;59781;52.090;5.030;2023-06-04T07:12:49;102237.22;;;20.49;71.62
71907;BME280;59781;52.090;5.030;2023-06-04T07:15:15;102248.38;;;20.95;71.75
71907;BME280;59781;52.090;5.030;2023-06-04T07:17:41;102247.53;;;20.95;69.83
71907;BME280;59781;52.090;5.030;2023-06-04T07:20:07;102253.69;;;21.10;72.11
71907;BME280;59781;52.090;5.030;2023-06-04T07:22:34;102250.03;;;21.64;67.93
71907;BME280;59781;52.090;5.030;2023-06-04T07:25:01;102250.53;;;21.06;67.62
71907;BME280;59781;52.090;5.030;2023-06-04T07:27:27;102255.72;;;19.63;70.72
71907;BME280;59781;52.090;5.030;2023-06-04T07:29:56;102247.41;;;20.27;67.63
71907;BME280;59781;52.090;5.030;2023-06-04T07:32:21;102252.56;;;20.91;67.45
71907;BME280;59781;52.090;5.030;2023-06-04T07:34:47;102258.34;;;21.16;67.82
71907;BME280;59781;52.090;5.030;2023-06-04T07:37:13;102250.13;;;22.61;64.13
71907;BME280;59781;52.090;5.030;2023-06-04T07:39:40;102247.84;;;22.52;61.97
71907;BME280;59781;52.090;5.030;2023-06-04T07:42:06;102256.75;;;22.27;60.27
71907;BME280;59781;52.090;5.030;2023-06-04T07:44:33;102265.63;;;22.10;59.54
71907;BME280;59781;52.090;5.030;2023-06-04T07:46:58;102260.16;;;21.63;61.01
71907;BME280;59781;52.090;5.030;2023-06-04T07:49:24;102244.50;;;22.30;60.89
71907;BME280;59781;52.090;5.030;2023-06-04T07:51:50;102255.22;;;22.45;62.25
71907;BME280;59781;52.090;5.030;2023-06-04T07:54:16;102247.88;;;22.32;59.64
71907;BME280;59781;52.090;5.030;2023-06-04T07:56:42;102247.53;;;23.18;57.63
71907;BME280;59781;52.090;5.030;2023-06-04T07:59:07;102251.06;;;22.02;60.15
71907;BME280;59781;52.090;5.030;2023-06-04T08:01:33;102242.63;;;21.97;57.31
71907;BME280;59781;52.090;5.030;2023-06-04T08:03:59;102244.06;;;22.98;55.90
71907;BME280;59781;52.090;5.030;2023-06-04T08:06:25;102250.22;;;21.95;57.23
71907;BME280;59781;52.090;5.030;2023-06-04T08:08:52;102258.44;;;21.62;54.65
71907;BME280;59781;52.090;5.030;2023-06-04T08:11:18;102258.88;;;22.12;57.27
71907;BME280;59781;52.090;5.030;2023-06-04T08:13:44;102254.44;;;21.91;55.86
71907;BME280;59781;52.090;5.030;2023-06-04T08:16:10;102250.63;;;22.25;55.19
71907;BME280;59781;52.090;5.030;2023-06-04T08:18:39;102242.00;;;22.86;53.55
71907;BME280;59781;52.090;5.030;2023-06-04T08:21:09;102245.66;;;23.50;53.73
71907;BME280;59781;52.090;5.030;2023-06-04T08:23:42;102253.03;;;23.18;53.55
71907;BME280;59781;52.090;5.030;2023-06-04T08:26:08;102251.31;;;22.85;55.29
71907;BME280;59781;52.090;5.030;2023-06-04T08:28:33;102252.75;;;23.33;56.14
71907;BME280;59781;52.090;5.030;2023-06-04T08:30:59;102264.03;;;23.18;55.45
71907;BME280;59781;52.090;5.030;2023-06-04T08:33:25;102258.88;;;22.90;55.94
71907;BME280;59781;52.090;5.030;2023-06-04T08:35:51;102257.94;;;23.09;54.28
71907;BME280;59781;52.090;5.030;2023-06-04T08:38:17;102249.78;;;23.91;54.44
71907;BME280;59781;52.090;5.030;2023-06-04T08:40:42;102255.53;;;23.26;53.33
71907;BME280;59781;52.090;5.030;2023-06-04T08:43:10;102253.94;;;23.12;51.89
71907;BME280;59781;52.090;5.030;2023-06-04T08:45:39;102255.38;;;23.14;52.70
71907;BME280;59781;52.090;5.030;2023-06-04T08:48:09;102259.53;;;22.79;52.53
71907;BME280;59781;52.090;5.030;2023-06-04T08:50:39;102262.31;;;23.55;51.24
71907;BME280;59781;52.090;5.030;2023-06-04T08:53:11;102260.75;;;24.16;50.91
71907;BME280;59781;52.090;5.030;2023-06-04T08:55:40;102258.06;;;24.34;53.04
71907;BME280;59781;52.090;5.030;2023-06-04T08:58:09;102258.88;;;24.89;50.71
71907;BME280;59781;52.090;5.030;2023-06-04T09:00:38;102265.06;;;24.85;51.98
71907;BME280;59781;52.090;5.030;2023-06-04T09:03:04;102261.41;;;24.91;48.70
71907;BME280;59781;52.090;5.030;2023-06-04T09:05:30;102262.50;;;24.28;50.13
71907;BME280;59781;52.090;5.030;2023-06-04T09:08:00;102259.03;;;23.96;50.91
71907;BME280;59781;52.090;5.030;2023-06-04T09:10:29;102259.38;;;24.25;56.15
71907;BME280;59781;52.090;5.030;2023-06-04T09:13:01;102254.69;;;24.32;51.92
71907;BME280;59781;52.090;5.030;2023-06-04T09:15:28;102261.09;;;24.99;48.95
71907;BME280;59781;52.090;5.030;2023-06-04T09:17:54;102259.25;;;24.75;47.75
71907;BME280;59781;52.090;5.030;2023-06-04T09:20:21;102254.94;;;24.49;51.30
71907;BME280;59781;52.090;5.030;2023-06-04T09:22:48;102254.31;;;25.43;48.54
71907;BME280;59781;52.090;5.030;2023-06-04T09:25:25;102260.28;;;25.94;47.70
71907;BME280;59781;52.090;5.030;2023-06-04T09:27:54;102257.72;;;25.69;45.42
71907;BME280;59781;52.090;5.030;2023-06-04T09:30:30;102258.84;;;26.03;45.32
71907;BME280;59781;52.090;5.030;2023-06-04T09:33:06;102259.44;;;24.80;49.34
71907;BME280;59781;52.090;5.030;2023-06-04T09:35:35;102254.41;;;26.02;43.78
71907;BME280;59781;52.090;5.030;2023-06-04T09:38:01;102258.06;;;25.61;45.79
71907;BME280;59781;52.090;5.030;2023-06-04T09:40:37;102252.28;;;26.39;46.43
71907;BME280;59781;52.090;5.030;2023-06-04T09:43:04;102259.78;;;26.67;46.15
71907;BME280;59781;52.090;5.030;2023-06-04T09:45:31;102251.72;;;26.77;43.33
71907;BME280;59781;52.090;5.030;2023-06-04T09:48:02;102265.50;;;26.37;46.13
71907;BME280;59781;52.090;5.030;2023-06-04T09:50:32;102256.34;;;26.48;46.38
71907;BME280;59781;52.090;5.030;2023-06-04T09:53:00;102269.44;;;26.41;45.32
71907;BME280;59781;52.090;5.030;2023-06-04T09:55:27;102269.66;;;26.05;44.13
71907;BME280;59781;52.090;5.030;2023-06-04T09:57:53;102263.31;;;25.39;43.21
71907;BME280;59781;52.090;5.030;2023-06-04T10:00:23;102261.03;;;26.01;44.30
71907;BME280;59781;52.090;5.030;2023-06-04T10:02:57;102254.81;;;26.81;40.39
71907;BME280;59781;52.090;5.030;2023-06-04T10:05:31;102262.78;;;25.72;41.03
71907;BME280;59781;52.090;5.030;2023-06-04T10:08:03;102259.59;;;25.87;42.78
71907;BME280;59781;52.090;5.030;2023-06-04T10:10:36;102265.13;;;25.98;44.53
71907;BME280;59781;52.090;5.030;2023-06-04T10:13:17;102267.72;;;26.05;43.07
71907;BME280;59781;52.090;5.030;2023-06-04T10:15:45;102258.97;;;26.20;44.13
71907;BME280;59781;52.090;5.030;2023-06-04T10:18:13;102252.72;;;26.59;46.39
71907;BME280;59781;52.090;5.030;2023-06-04T10:20:41;102265.09;;;26.97;42.88
71907;BME280;59781;52.090;5.030;2023-06-04T10:23:07;102265.47;;;26.14;39.10
71907;BME280;59781;52.090;5.030;2023-06-04T10:25:37;102259.91;;;25.67;41.76
71907;BME280;59781;52.090;5.030;2023-06-04T10:28:03;102260.31;;;26.06;40.78
71907;BME280;59781;52.090;5.030;2023-06-04T10:30:30;102257.06;;;26.09;40.65
71907;BME280;59781;52.090;5.030;2023-06-04T10:32:57;102256.31;;;26.60;41.22
71907;BME280;59781;52.090;5.030;2023-06-04T10:35:35;102256.59;;;25.46;42.55
71907;BME280;59781;52.090;5.030;2023-06-04T10:38:09;102256.41;;;26.77;42.33
71907;BME280;59781;52.090;5.030;2023-06-04T10:40:37;102263.53;;;25.91;51.01
71907;BME280;59781;52.090;5.030;2023-06-04T10:43:14;102262.44;;;27.02;49.78
71907;BME280;59781;52.090;5.030;2023-06-04T10:45:44;102258.13;;;26.54;49.19
71907;BME280;59781;52.090;5.030;2023-06-04T10:48:12;102257.78;;;26.04;52.36
71907;BME280;59781;52.090;5.030;2023-06-04T10:50:50;102258.53;;;27.43;52.56
71907;BME280;59781;52.090;5.030;2023-06-04T10:53:18;102264.41;;;26.90;49.93
71907;BME280;59781;52.090;5.030;2023-06-04T10:55:46;102261.53;;;26.85;50.78
71907;BME280;59781;52.090;5.030;2023-06-04T10:58:13;102256.06;;;27.30;50.50
71907;BME280;59781;52.090;5.030;2023-06-04T11:00:42;102265.94;;;26.98;49.69
71907;BME280;59781;52.090;5.030;2023-06-04T11:03:11;102261.38;;;26.05;53.46
71907;BME280;59781;52.090;5.030;2023-06-04T11:05:43;102256.28;;;27.12;48.04
71907;BME280;59781;52.090;5.030;2023-06-04T11:08:12;102254.22;;;26.79;47.24
71907;BME280;59781;52.090;5.030;2023-06-04T11:10:43;102249.34;;;26.98;49.92
71907;BME280;59781;52.090;5.030;2023-06-04T11:13:11;102252.75;;;26.88;50.22
71907;BME280;59781;52.090;5.030;2023-06-04T11:15:42;102253.25;;;27.13;51.81
71907;BME280;59781;52.090;5.030;2023-06-04T11:18:13;102240.41;;;27.36;53.80
71907;BME280;59781;52.090;5.030;2023-06-04T11:20:44;102242.28;;;27.47;50.61
71907;BME280;59781;52.090;5.030;2023-06-04T11:23:15;102244.38;;;28.07;51.70
71907;BME280;59781;52.090;5.030;2023-06-04T11:25:42;102248.06;;;27.62;47.53
71907;BME280;59781;52.090;5.030;2023-06-04T11:28:16;102248.97;;;28.18;51.70
71907;BME280;59781;52.090;5.030;2023-06-04T11:31:16;102245.31;;;27.79;50.71
71907;BME280;59781;52.090;5.030;2023-06-04T11:33:45;102247.66;;;27.08;56.28
71907;BME280;59781;52.090;5.030;2023-06-04T11:36:29;102242.97;;;27.09;52.04
71907;BME280;59781;52.090;5.030;2023-06-04T11:41:30;102239.28;;;27.82;57.69
71907;BME280;59781;52.090;5.030;2023-06-04T11:44:01;102235.09;;;27.96;54.74
71907;BME280;59781;52.090;5.030;2023-06-04T11:46:29;102234.97;;;27.41;56.89
71907;BME280;59781;52.090;5.030;2023-06-04T11:48:57;102236.19;;;27.33;55.62
71907;BME280;59781;52.090;5.030;2023-06-04T11:51:24;102228.19;;;27.49;56.66
71907;BME280;59781;52.090;5.030;2023-06-04T11:53:50;102225.69;;;27.64;55.32
71907;BME280;59781;52.090;5.030;2023-06-04T11:56:17;102225.81;;;27.40;54.39
71907;BME280;59781;52.090;5.030;2023-06-04T11:58:43;102220.72;;;27.04;56.97
71907;BME280;59781;52.090;5.030;2023-06-04T12:01:12;102218.06;;;27.71;53.25
71907;BME280;59781;52.090;5.030;2023-06-04T12:03:40;102217.09;;;27.15;52.40
71907;BME280;59781;52.090;5.030;2023-06-04T12:06:13;102216.69;;;26.43;56.11
71907;BME280;59781;52.090;5.030;2023-06-04T12:08:52;102220.53;;;26.53;58.16
71907;BME280;59781;52.090;5.030;2023-06-04T12:11:30;102215.75;;;26.49;54.56
71907;BME280;59781;52.090;5.030;2023-06-04T12:14:04;102224.16;;;26.42;54.82
71907;BME280;59781;52.090;5.030;2023-06-04T12:16:31;102220.91;;;26.85;55.75
71907;BME280;59781;52.090;5.030;2023-06-04T12:19:11;102214.16;;;27.38;54.94
71907;BME280;59781;52.090;5.030;2023-06-04T12:21:38;102217.22;;;27.70;54.09
71907;BME280;59781;52.090;5.030;2023-06-04T12:24:09;102222.97;;;27.35;53.96
71907;BME280;59781;52.090;5.030;2023-06-04T12:26:37;102215.34;;;26.97;55.17
71907;BME280;59781;52.090;5.030;2023-06-04T12:31:37;102218.66;;;27.11;52.60
71907;BME280;59781;52.090;5.030;2023-06-04T12:34:04;102213.28;;;27.04;52.43
71907;BME280;59781;52.090;5.030;2023-06-04T12:36:29;102223.31;;;26.42;51.64
71907;BME280;59781;52.090;5.030;2023-06-04T12:38:59;102216.03;;;26.64;53.17
71907;BME280;59781;52.090;5.030;2023-06-04T12:41:27;102218.09;;;26.97;53.53
71907;BME280;59781;52.090;5.030;2023-06-04T12:43:53;102222.00;;;26.84;54.08
71907;BME280;59781;52.090;5.030;2023-06-04T12:46:20;102222.19;;;26.95;50.86
71907;BME280;59781;52.090;5.030;2023-06-04T12:48:47;102221.38;;;26.82;53.01
71907;BME280;59781;52.090;5.030;2023-06-04T12:51:14;102218.44;;;27.01;50.79
71907;BME280;59781;52.090;5.030;2023-06-04T12:53:40;102226.69;;;26.20;50.49
71907;BME280;59781;52.090;5.030;2023-06-04T12:56:07;102226.56;;;26.03;54.07
71907;BME280;59781;52.090;5.030;2023-06-04T12:58:34;102213.59;;;26.39;51.39
71907;BME280;59781;52.090;5.030;2023-06-04T13:01:00;102209.03;;;26.73;51.25